Aviation Digital Data Service (ADDS)

Output produced by METARs form (2102 UTC 19 May 2019)
found at http://www.aviationweather.gov/metar/data/
 
METAR text: KMCO 192053Z 12010KT 10SM FEW055 SCT100 31/19 A2998 RMK AO2 SLP152 VCSH NE T03060194 58019
Conditions at: KMCO (ORLANDO , FL, US) observed 2053 UTC 19 May 2019
Temperature: 30.6°C (87°F)
Dewpoint: 19.4°C (67°F) [RH = 51%]
Pressure (altimeter): 29.98 inches Hg (1015.3 mb)
[Sea-level pressure: 1015.2 mb]
Winds: from the ESE (120 degrees) at 12 MPH (10 knots; 5.1 m/s)
Visibility: 10 or more miles (16+ km)
Ceiling: at least 12,000 feet AGL
Clouds: few clouds at 5500 feet AGL
scattered clouds at 10000 feet AGL
Weather: no significant weather observed at this time

METAR text: KMCO 191953Z 18007KT 10SM FEW055 FEW070 32/13 A3000 RMK AO2 SLP156 VCSH E T03220128
Conditions at: KMCO (ORLANDO , FL, US) observed 1953 UTC 19 May 2019
Temperature: 32.2°C (90°F)
Dewpoint: 12.8°C (55°F) [RH = 31%]
Pressure (altimeter): 30.00 inches Hg (1016.0 mb)
[Sea-level pressure: 1015.6 mb]
Winds: from the S (180 degrees) at 8 MPH (7 knots; 3.6 m/s)
Visibility: 10 or more miles (16+ km)
Ceiling: at least 12,000 feet AGL
Clouds: few clouds at 5500 feet AGL
few clouds at 7000 feet AGL
Weather: no significant weather observed at this time

METAR text: KMCO 191853Z 00000KT 10SM FEW055 32/12 A3003 RMK AO2 SLP167 T03170122
Conditions at: KMCO (ORLANDO , FL, US) observed 1853 UTC 19 May 2019
Temperature: 31.7°C (89°F)
Dewpoint: 12.2°C (54°F) [RH = 30%]
Pressure (altimeter): 30.03 inches Hg (1017.0 mb)
[Sea-level pressure: 1016.7 mb]
Winds: calm
Visibility: 10 or more miles (16+ km)
Ceiling: at least 12,000 feet AGL
Clouds: few clouds at 5500 feet AGL
Weather: no significant weather observed at this time

METAR text: KMCO 191753Z VRB03KT 10SM SCT055 31/17 A3004 RMK AO2 SLP171 T03060167 10311 20228 58006
Conditions at: KMCO (ORLANDO , FL, US) observed 1753 UTC 19 May 2019
Temperature: 30.6°C (87°F)
Dewpoint: 16.7°C (62°F) [RH = 43%]
Pressure (altimeter): 30.04 inches Hg (1017.4 mb)
[Sea-level pressure: 1017.1 mb]
Winds: variable direction winds at 3 MPH (3 knots; 1.5 m/s)
Visibility: 10 or more miles (16+ km)
Ceiling: at least 12,000 feet AGL
Clouds: scattered clouds at 5500 feet AGL
Weather: no significant weather observed at this time

METAR text: KMCO 191653Z 20003KT 10SM SCT040 29/17 A3005 RMK AO2 SLP175 T02940167
Conditions at: KMCO (ORLANDO , FL, US) observed 1653 UTC 19 May 2019
Temperature: 29.4°C (85°F)
Dewpoint: 16.7°C (62°F) [RH = 46%]
Pressure (altimeter): 30.05 inches Hg (1017.7 mb)
[Sea-level pressure: 1017.5 mb]
Winds: from the SSW (200 degrees) at 3 MPH (3 knots; 1.5 m/s)
Visibility: 10 or more miles (16+ km)
Ceiling: at least 12,000 feet AGL
Clouds: scattered clouds at 4000 feet AGL
Weather: no significant weather observed at this time

METAR text: KMCO 191553Z VRB05KT 10SM FEW040 FEW250 29/17 A3006 RMK AO2 SLP176 T02940167
Conditions at: KMCO (ORLANDO , FL, US) observed 1553 UTC 19 May 2019
Temperature: 29.4°C (85°F)
Dewpoint: 16.7°C (62°F) [RH = 46%]
Pressure (altimeter): 30.06 inches Hg (1018.0 mb)
[Sea-level pressure: 1017.6 mb]
Winds: variable direction winds at 6 MPH (5 knots; 2.6 m/s)
Visibility: 10 or more miles (16+ km)
Ceiling: at least 12,000 feet AGL
Clouds: few clouds at 4000 feet AGL
few clouds at 25000 feet AGL
Weather: no significant weather observed at this time

METAR text: KMCO 191453Z 00000KT 10SM FEW040 FEW250 28/19 A3006 RMK AO2 SLP176 T02780189 53004
Conditions at: KMCO (ORLANDO , FL, US) observed 1453 UTC 19 May 2019
Temperature: 27.8°C (82°F)
Dewpoint: 18.9°C (66°F) [RH = 58%]
Pressure (altimeter): 30.06 inches Hg (1018.0 mb)
[Sea-level pressure: 1017.6 mb]
Winds: calm
Visibility: 10 or more miles (16+ km)
Ceiling: at least 12,000 feet AGL
Clouds: few clouds at 4000 feet AGL
few clouds at 25000 feet AGL
Weather: no significant weather observed at this time

METAR text: KMCO 191353Z 11006KT 10SM FEW040 FEW250 27/19 A3005 RMK AO2 SLP173 T02670194
Conditions at: KMCO (ORLANDO , FL, US) observed 1353 UTC 19 May 2019
Temperature: 26.7°C (80°F)
Dewpoint: 19.4°C (67°F) [RH = 64%]
Pressure (altimeter): 30.05 inches Hg (1017.7 mb)
[Sea-level pressure: 1017.3 mb]
Winds: from the ESE (110 degrees) at 7 MPH (6 knots; 3.1 m/s)
Visibility: 10 or more miles (16+ km)
Ceiling: at least 12,000 feet AGL
Clouds: few clouds at 4000 feet AGL
few clouds at 25000 feet AGL
Weather: no significant weather observed at this time

METAR text: KMCO 191253Z 09004KT 10SM FEW040 FEW250 24/19 A3004 RMK AO2 SLP171 T02440194
Conditions at: KMCO (ORLANDO , FL, US) observed 1253 UTC 19 May 2019
Temperature: 24.4°C (76°F)
Dewpoint: 19.4°C (67°F) [RH = 74%]
Pressure (altimeter): 30.04 inches Hg (1017.4 mb)
[Sea-level pressure: 1017.1 mb]
Winds: from the E (90 degrees) at 5 MPH (4 knots; 2.1 m/s)
Visibility: 10 or more miles (16+ km)
Ceiling: at least 12,000 feet AGL
Clouds: few clouds at 4000 feet AGL
few clouds at 25000 feet AGL
Weather: no significant weather observed at this time

METAR text: KMCO 191153Z 00000KT 10SM FEW040 23/19 A3005 RMK AO2 SLP172 T02280189 10228 20189 53006
Conditions at: KMCO (ORLANDO , FL, US) observed 1153 UTC 19 May 2019
Temperature: 22.8°C (73°F)
Dewpoint: 18.9°C (66°F) [RH = 79%]
Pressure (altimeter): 30.05 inches Hg (1017.7 mb)
[Sea-level pressure: 1017.2 mb]
Winds: calm
Visibility: 10 or more miles (16+ km)
Ceiling: at least 12,000 feet AGL
Clouds: few clouds at 4000 feet AGL
Weather: no significant weather observed at this time

METAR text: KMCO 191053Z 06004KT 10SM FEW040 21/18 A3004 RMK AO2 SLP169 T02060183
Conditions at: KMCO (ORLANDO , FL, US) observed 1053 UTC 19 May 2019
Temperature: 20.6°C (69°F)
Dewpoint: 18.3°C (65°F) [RH = 87%]
Pressure (altimeter): 30.04 inches Hg (1017.4 mb)
[Sea-level pressure: 1016.9 mb]
Winds: from the ENE (60 degrees) at 5 MPH (4 knots; 2.1 m/s)
Visibility: 10 or more miles (16+ km)
Ceiling: at least 12,000 feet AGL
Clouds: few clouds at 4000 feet AGL
Weather: no significant weather observed at this time

METAR text: KMCO 190953Z 00000KT 10SM FEW040 20/18 A3003 RMK AO2 SLP167 T02000178
Conditions at: KMCO (ORLANDO , FL, US) observed 0953 UTC 19 May 2019
Temperature: 20.0°C (68°F)
Dewpoint: 17.8°C (64°F) [RH = 87%]
Pressure (altimeter): 30.03 inches Hg (1017.0 mb)
[Sea-level pressure: 1016.7 mb]
Winds: calm
Visibility: 10 or more miles (16+ km)
Ceiling: at least 12,000 feet AGL
Clouds: few clouds at 4000 feet AGL
Weather: no significant weather observed at this time

METAR text: KMCO 190853Z 00000KT 10SM CLR 19/18 A3003 RMK AO2 SLP166 T01940178 53003
Conditions at: KMCO (ORLANDO , FL, US) observed 0853 UTC 19 May 2019
Temperature: 19.4°C (67°F)
Dewpoint: 17.8°C (64°F) [RH = 90%]
Pressure (altimeter): 30.03 inches Hg (1017.0 mb)
[Sea-level pressure: 1016.6 mb]
Winds: calm
Visibility: 10 or more miles (16+ km)
Ceiling: at least 12,000 feet AGL
Clouds: sky clear below 12,000 feet AGL
Weather: no significant weather observed at this time

METAR text: KMCO 190753Z 00000KT 10SM CLR 20/18 A3001 RMK AO2 SLP161 T02000178
Conditions at: KMCO (ORLANDO , FL, US) observed 0753 UTC 19 May 2019
Temperature: 20.0°C (68°F)
Dewpoint: 17.8°C (64°F) [RH = 87%]
Pressure (altimeter): 30.01 inches Hg (1016.3 mb)
[Sea-level pressure: 1016.1 mb]
Winds: calm
Visibility: 10 or more miles (16+ km)
Ceiling: at least 12,000 feet AGL
Clouds: sky clear below 12,000 feet AGL
Weather: no significant weather observed at this time

METAR text: KMCO 190653Z 00000KT 10SM CLR 20/18 A3001 RMK AO2 SLP161 T02000178
Conditions at: KMCO (ORLANDO , FL, US) observed 0653 UTC 19 May 2019
Temperature: 20.0°C (68°F)
Dewpoint: 17.8°C (64°F) [RH = 87%]
Pressure (altimeter): 30.01 inches Hg (1016.3 mb)
[Sea-level pressure: 1016.1 mb]
Winds: calm
Visibility: 10 or more miles (16+ km)
Ceiling: at least 12,000 feet AGL
Clouds: sky clear below 12,000 feet AGL
Weather: no significant weather observed at this time

METAR text: KMCO 190553Z 12006KT 10SM CLR 21/18 A3002 RMK AO2 SLP162 T02110178 10256 20200 58010
Conditions at: KMCO (ORLANDO , FL, US) observed 0553 UTC 19 May 2019
Temperature: 21.1°C (70°F)
Dewpoint: 17.8°C (64°F) [RH = 81%]
Pressure (altimeter): 30.02 inches Hg (1016.7 mb)
[Sea-level pressure: 1016.2 mb]
Winds: from the ESE (120 degrees) at 7 MPH (6 knots; 3.1 m/s)
Visibility: 10 or more miles (16+ km)
Ceiling: at least 12,000 feet AGL
Clouds: sky clear below 12,000 feet AGL
Weather: no significant weather observed at this time

METAR text: KMCO 190453Z 13004KT 10SM CLR 21/17 A3003 RMK AO2 SLP168 T02060172 403110183
Conditions at: KMCO (ORLANDO , FL, US) observed 0453 UTC 19 May 2019
Temperature: 20.6°C (69°F)
Dewpoint: 17.2°C (63°F) [RH = 81%]
Pressure (altimeter): 30.03 inches Hg (1017.0 mb)
[Sea-level pressure: 1016.8 mb]
Winds: from the SE (130 degrees) at 5 MPH (4 knots; 2.1 m/s)
Visibility: 10 or more miles (16+ km)
Ceiling: at least 12,000 feet AGL
Clouds: sky clear below 12,000 feet AGL
Weather: no significant weather observed at this time

METAR text: KMCO 190353Z 13003KT 10SM CLR 21/17 A3004 RMK AO2 SLP172 T02060172
Conditions at: KMCO (ORLANDO , FL, US) observed 0353 UTC 19 May 2019
Temperature: 20.6°C (69°F)
Dewpoint: 17.2°C (63°F) [RH = 81%]
Pressure (altimeter): 30.04 inches Hg (1017.4 mb)
[Sea-level pressure: 1017.2 mb]
Winds: from the SE (130 degrees) at 3 MPH (3 knots; 1.5 m/s)
Visibility: 10 or more miles (16+ km)
Ceiling: at least 12,000 feet AGL
Clouds: sky clear below 12,000 feet AGL
Weather: no significant weather observed at this time

METAR text: KMCO 190253Z 12007KT 10SM CLR 22/17 A3005 RMK AO2 SLP173 T02220172 53016
Conditions at: KMCO (ORLANDO , FL, US) observed 0253 UTC 19 May 2019
Temperature: 22.2°C (72°F)
Dewpoint: 17.2°C (63°F) [RH = 73%]
Pressure (altimeter): 30.05 inches Hg (1017.7 mb)
[Sea-level pressure: 1017.3 mb]
Winds: from the ESE (120 degrees) at 8 MPH (7 knots; 3.6 m/s)
Visibility: 10 or more miles (16+ km)
Ceiling: at least 12,000 feet AGL
Clouds: sky clear below 12,000 feet AGL
Weather: no significant weather observed at this time

METAR text: KMCO 190153Z 10007KT 10SM CLR 23/17 A3003 RMK AO2 SLP167 T02330172
Conditions at: KMCO (ORLANDO , FL, US) observed 0153 UTC 19 May 2019
Temperature: 23.3°C (74°F)
Dewpoint: 17.2°C (63°F) [RH = 69%]
Pressure (altimeter): 30.03 inches Hg (1017.0 mb)
[Sea-level pressure: 1016.7 mb]
Winds: from the E (100 degrees) at 8 MPH (7 knots; 3.6 m/s)
Visibility: 10 or more miles (16+ km)
Ceiling: at least 12,000 feet AGL
Clouds: sky clear below 12,000 feet AGL
Weather: no significant weather observed at this time

METAR text: KMCO 190053Z 10008KT 10SM CLR 24/16 A3002 RMK AO2 SLP163 T02440161
Conditions at: KMCO (ORLANDO , FL, US) observed 0053 UTC 19 May 2019
Temperature: 24.4°C (76°F)
Dewpoint: 16.1°C (61°F) [RH = 60%]
Pressure (altimeter): 30.02 inches Hg (1016.7 mb)
[Sea-level pressure: 1016.3 mb]
Winds: from the E (100 degrees) at 9 MPH (8 knots; 4.1 m/s)
Visibility: 10 or more miles (16+ km)
Ceiling: at least 12,000 feet AGL
Clouds: sky clear below 12,000 feet AGL
Weather: no significant weather observed at this time

METAR text: KMCO 182353Z 10010KT 10SM CLR 26/15 A3000 RMK AO2 SLP157 T02560150 10311 20256 52006
Conditions at: KMCO (ORLANDO , FL, US) observed 2353 UTC 18 May 2019
Temperature: 25.6°C (78°F)
Dewpoint: 15.0°C (59°F) [RH = 52%]
Pressure (altimeter): 30.00 inches Hg (1016.0 mb)
[Sea-level pressure: 1015.7 mb]
Winds: from the E (100 degrees) at 12 MPH (10 knots; 5.1 m/s)
Visibility: 10 or more miles (16+ km)
Ceiling: at least 12,000 feet AGL
Clouds: sky clear below 12,000 feet AGL
Weather: no significant weather observed at this time

METAR text: KMCO 182253Z 11011G19KT 10SM FEW050 27/15 A2999 RMK AO2 SLP154 T02720150
Conditions at: KMCO (ORLANDO , FL, US) observed 2253 UTC 18 May 2019
Temperature: 27.2°C (81°F)
Dewpoint: 15.0°C (59°F) [RH = 47%]
Pressure (altimeter): 29.99 inches Hg (1015.7 mb)
[Sea-level pressure: 1015.4 mb]
Winds: from the ESE (110 degrees) at 13 MPH (11 knots; 5.7 m/s)
gusting to 22 MPH (19 knots; 9.8 m/s)
Visibility: 10 or more miles (16+ km)
Ceiling: at least 12,000 feet AGL
Clouds: few clouds at 5000 feet AGL
Weather: no significant weather observed at this time

METAR text: KMCO 182153Z 11009G17KT 10SM FEW060 29/14 A2999 RMK AO2 SLP154 T02890139
Conditions at: KMCO (ORLANDO , FL, US) observed 2153 UTC 18 May 2019
Temperature: 28.9°C (84°F)
Dewpoint: 13.9°C (57°F) [RH = 40%]
Pressure (altimeter): 29.99 inches Hg (1015.7 mb)
[Sea-level pressure: 1015.4 mb]
Winds: from the ESE (110 degrees) at 10 MPH (9 knots; 4.6 m/s)
gusting to 20 MPH (17 knots; 8.7 m/s)
Visibility: 10 or more miles (16+ km)
Ceiling: at least 12,000 feet AGL
Clouds: few clouds at 6000 feet AGL
Weather: no significant weather observed at this time

METAR text: KMCO 182053Z 12010KT 080V140 10SM FEW065 29/14 A2998 RMK AO2 SLP151 T02940139 56017
Conditions at: KMCO (ORLANDO , FL, US) observed 2053 UTC 18 May 2019
Temperature: 29.4°C (85°F)
Dewpoint: 13.9°C (57°F) [RH = 39%]
Pressure (altimeter): 29.98 inches Hg (1015.3 mb)
[Sea-level pressure: 1015.1 mb]
Winds: from the ESE (120 degrees) at 12 MPH (10 knots; 5.1 m/s)
Visibility: 10 or more miles (16+ km)
Ceiling: at least 12,000 feet AGL
Clouds: few clouds at 6500 feet AGL
Weather: no significant weather observed at this time

METAR text: KMCO 181953Z 06007G15KT 10SM FEW090 31/11 A2999 RMK AO2 SLP154 T03060111
Conditions at: KMCO (ORLANDO , FL, US) observed 1953 UTC 18 May 2019
Temperature: 30.6°C (87°F)
Dewpoint: 11.1°C (52°F) [RH = 30%]
Pressure (altimeter): 29.99 inches Hg (1015.7 mb)
[Sea-level pressure: 1015.4 mb]
Winds: from the ENE (60 degrees) at 8 MPH (7 knots; 3.6 m/s)
gusting to 17 MPH (15 knots; 7.7 m/s)
Visibility: 10 or more miles (16+ km)
Ceiling: at least 12,000 feet AGL
Clouds: few clouds at 9000 feet AGL
Weather: no significant weather observed at this time

METAR text: KMCO 181853Z 06013G16KT 10SM FEW080 30/11 A3002 RMK AO2 SLP162 T03000111
Conditions at: KMCO (ORLANDO , FL, US) observed 1853 UTC 18 May 2019
Temperature: 30.0°C (86°F)
Dewpoint: 11.1°C (52°F) [RH = 31%]
Pressure (altimeter): 30.02 inches Hg (1016.7 mb)
[Sea-level pressure: 1016.2 mb]
Winds: from the ENE (60 degrees) at 15 MPH (13 knots; 6.7 m/s)
gusting to 18 MPH (16 knots; 8.2 m/s)
Visibility: 10 or more miles (16+ km)
Ceiling: at least 12,000 feet AGL
Clouds: few clouds at 8000 feet AGL
Weather: no significant weather observed at this time

METAR text: KMCO 181753Z 06008KT 10SM FEW050 31/15 A3003 RMK AO2 SLP168 T03060150 10306 20217 58009
Conditions at: KMCO (ORLANDO , FL, US) observed 1753 UTC 18 May 2019
Temperature: 30.6°C (87°F)
Dewpoint: 15.0°C (59°F) [RH = 39%]
Pressure (altimeter): 30.03 inches Hg (1017.0 mb)
[Sea-level pressure: 1016.8 mb]
Winds: from the ENE (60 degrees) at 9 MPH (8 knots; 4.1 m/s)
Visibility: 10 or more miles (16+ km)
Ceiling: at least 12,000 feet AGL
Clouds: few clouds at 5000 feet AGL
Weather: no significant weather observed at this time

METAR text: KMCO 181653Z VRB04KT 10SM FEW050 FEW070 29/16 A3004 RMK AO2 SLP171 T02890161
Conditions at: KMCO (ORLANDO , FL, US) observed 1653 UTC 18 May 2019
Temperature: 28.9°C (84°F)
Dewpoint: 16.1°C (61°F) [RH = 46%]
Pressure (altimeter): 30.04 inches Hg (1017.4 mb)
[Sea-level pressure: 1017.1 mb]
Winds: variable direction winds at 5 MPH (4 knots; 2.1 m/s)
Visibility: 10 or more miles (16+ km)
Ceiling: at least 12,000 feet AGL
Clouds: few clouds at 5000 feet AGL
few clouds at 7000 feet AGL
Weather: no significant weather observed at this time

METAR text: KMCO 181553Z 06005KT 10SM FEW070 28/17 A3005 RMK AO2 SLP176 T02830167
Conditions at: KMCO (ORLANDO , FL, US) observed 1553 UTC 18 May 2019
Temperature: 28.3°C (83°F)
Dewpoint: 16.7°C (62°F) [RH = 49%]
Pressure (altimeter): 30.05 inches Hg (1017.7 mb)
[Sea-level pressure: 1017.6 mb]
Winds: from the ENE (60 degrees) at 6 MPH (5 knots; 2.6 m/s)
Visibility: 10 or more miles (16+ km)
Ceiling: at least 12,000 feet AGL
Clouds: few clouds at 7000 feet AGL
Weather: no significant weather observed at this time

METAR text: KMCO 181453Z 00000KT 10SM FEW070 27/16 A3006 RMK AO2 SLP177 T02670156 50004
Conditions at: KMCO (ORLANDO , FL, US) observed 1453 UTC 18 May 2019
Temperature: 26.7°C (80°F)
Dewpoint: 15.6°C (60°F) [RH = 51%]
Pressure (altimeter): 30.06 inches Hg (1018.0 mb)
[Sea-level pressure: 1017.7 mb]
Winds: calm
Visibility: 10 or more miles (16+ km)
Ceiling: at least 12,000 feet AGL
Clouds: few clouds at 7000 feet AGL
Weather: no significant weather observed at this time

METAR text: KMCO 181353Z VRB04KT 10SM FEW075 26/17 A3006 RMK AO2 SLP179 T02560172
Conditions at: KMCO (ORLANDO , FL, US) observed 1353 UTC 18 May 2019
Temperature: 25.6°C (78°F)
Dewpoint: 17.2°C (63°F) [RH = 60%]
Pressure (altimeter): 30.06 inches Hg (1018.0 mb)
[Sea-level pressure: 1017.9 mb]
Winds: variable direction winds at 5 MPH (4 knots; 2.1 m/s)
Visibility: 10 or more miles (16+ km)
Ceiling: at least 12,000 feet AGL
Clouds: few clouds at 7500 feet AGL
Weather: no significant weather observed at this time

METAR text: KMCO 181253Z 00000KT 10SM FEW075 24/18 A3006 RMK AO2 SLP178 T02390178
Conditions at: KMCO (ORLANDO , FL, US) observed 1253 UTC 18 May 2019
Temperature: 23.9°C (75°F)
Dewpoint: 17.8°C (64°F) [RH = 69%]
Pressure (altimeter): 30.06 inches Hg (1018.0 mb)
[Sea-level pressure: 1017.8 mb]
Winds: calm
Visibility: 10 or more miles (16+ km)
Ceiling: at least 12,000 feet AGL
Clouds: few clouds at 7500 feet AGL
Weather: no significant weather observed at this time

METAR text: KMCO 181153Z 00000KT 10SM FEW075 22/18 A3005 RMK AO2 SLP173 T02170183 10217 20183 53004
Conditions at: KMCO (ORLANDO , FL, US) observed 1153 UTC 18 May 2019
Temperature: 21.7°C (71°F)
Dewpoint: 18.3°C (65°F) [RH = 81%]
Pressure (altimeter): 30.05 inches Hg (1017.7 mb)
[Sea-level pressure: 1017.3 mb]
Winds: calm
Visibility: 10 or more miles (16+ km)
Ceiling: at least 12,000 feet AGL
Clouds: few clouds at 7500 feet AGL
Weather: no significant weather observed at this time

METAR text: KMCO 181053Z 00000KT 10SM FEW075 19/17 A3004 RMK AO2 SLP170 T01890172
Conditions at: KMCO (ORLANDO , FL, US) observed 1053 UTC 18 May 2019
Temperature: 18.9°C (66°F)
Dewpoint: 17.2°C (63°F) [RH = 90%]
Pressure (altimeter): 30.04 inches Hg (1017.4 mb)
[Sea-level pressure: 1017.0 mb]
Winds: calm
Visibility: 10 or more miles (16+ km)
Ceiling: at least 12,000 feet AGL
Clouds: few clouds at 7500 feet AGL
Weather: no significant weather observed at this time

METAR text: KMCO 180953Z 00000KT 10SM FEW075 19/17 A3003 RMK AO2 SLP169 T01890172
Conditions at: KMCO (ORLANDO , FL, US) observed 0953 UTC 18 May 2019
Temperature: 18.9°C (66°F)
Dewpoint: 17.2°C (63°F) [RH = 90%]
Pressure (altimeter): 30.03 inches Hg (1017.0 mb)
[Sea-level pressure: 1016.9 mb]
Winds: calm
Visibility: 10 or more miles (16+ km)
Ceiling: at least 12,000 feet AGL
Clouds: few clouds at 7500 feet AGL
Weather: no significant weather observed at this time

Forecast for: KMCO (ORLANDO , FL, US)
Text: KMCO 192056Z 1921/2024 10010KT P6SM VCSH SCT050
Forecast period: 2100 UTC 19 May 2019 to 0300 UTC 20 May 2019
Forecast type: FROM: standard forecast or significant change
Winds: from the E (100 degrees) at 12 MPH (10 knots; 5.1 m/s)
Visibility: 6 or more miles 10+ km)
Ceiling: at least 12,000 feet AGL
Clouds: scattered clouds at 5000 feet AGL
Weather: VCSH  (showers in vicinity)
Text: FM200300 VRB02KT P6SM SKC
Forecast period: 0300 to 1400 UTC 20 May 2019
Forecast type: FROM: standard forecast or significant change
Winds: variable direction winds at 2 MPH (2 knots; 1.0 m/s)
Visibility: 6 or more miles 10+ km)
Clouds: clear skies
Weather: no significant weather forecast for this period
Text: FM201400 13005KT P6SM SCT025
Forecast period: 1400 to 1800 UTC 20 May 2019
Forecast type: FROM: standard forecast or significant change
Winds: from the SE (130 degrees) at 6 MPH (5 knots; 2.6 m/s)
Visibility: 6 or more miles 10+ km)
Ceiling: at least 12,000 feet AGL
Clouds: scattered clouds at 2500 feet AGL
Weather: no significant weather forecast for this period
Text: FM201800 10008KT P6SM SCT045
Forecast period: 1800 UTC 20 May 2019 to 0000 UTC 21 May 2019
Forecast type: FROM: standard forecast or significant change
Winds: from the E (100 degrees) at 9 MPH (8 knots; 4.1 m/s)
Visibility: 6 or more miles 10+ km)
Ceiling: at least 12,000 feet AGL
Clouds: scattered clouds at 4500 feet AGL
Weather: no significant weather forecast for this period